Main page
METAR-TAF:

METAR-TAF

Airports :

Casement Aerodrome

Dublin, Ireland

latitude: 53-18-06N, longitude: 6-27-04W, elevation: 97 m

Current weather observation

The report was made 1 hour and 5 minutes ago, at 09:00 UTC
Wind 15 kt from the West/Southwest
Temperature 6°C
Humidity 75%
Pressure 1032 hPa
Visibility 10 km or more
Few clouds at a height of 1800 ft

METAR: EIME 240900Z 25015KT 9999 FEW018 06/02 Q1032

Time: 10:05 (10:05 UTC)

Forecast

The report was made 2 hours and 5 minutes ago, at 08:00 UTC
Forecast valid from 24 at 09 UTC to 24 at 18 UTC
Wind 10 kt from the West/Southwest
Visibility 10 km or more
Few clouds at a height of 2000 ft
Scattered clouds at a height of 4500 ft
Becoming
from 24 at 09 UTC to 24 at 12 UTC
Wind 16 kt from the West with gusts up to 26 kt
Becoming
from 24 at 16 UTC to 24 at 18 UTC
Wind 16 kt from the West/Northwest

TAF: EIME 240800Z 2409/2418 25010KT 9999 FEW020 SCT045 BECMG 2409/2412 28016G26KT BECMG 2416/2418 30016KT

Weather observations and forecasts of more than 4000 airports (METAR and TAF reports).

The available stations are represented by yellow and red dots on the map.

Hover mouse over dot to see the name of the station.

Then click to see weather observations and forecasts.

To change the map : click on the green buttons with a black cross to zoom in, on the green button with a dash to zoom out, or on the green arrows for adjacent maps.


METAR-TAF: